Maggie Valley, NC

2:40 PM EDT on March 27, 2017 (GMT -0400)
Cook-mnts Valley Vista | | Change Station

Elev 3878 ft 35.52 °N, 83.11 °W | Updated 0 second ago

Mostly Cloudy
Mostly Cloudy
55.9 °F
Feels Like 55.9 °F
N
3.0
Wind Variable Wind from ENE

Today
High -- | Low -- °F
--% Chance of Precip.
Yesterday
High -- | Low -- °F
Precip. -- in
Pressure 30.08 in
Visibility 10.0 miles
Clouds Mostly Cloudy 4000 ft
Mostly Cloudy 5000 ft
Overcast 9500 ft
Dew Point 55 °F
Humidity 98%
Rainfall 0.17 in
Snow Depth Not available.
7:25 AM 7:50 PM
Waning Crescent, 0% visible
METAR K1A5 271820Z AUTO 03004KT 10SM BKN040 BKN050 OVC095 19/14 A3008 RMK AO2 T01910136
Pressure 30.08 in
Visibility 10.0 miles
Clouds Mostly Cloudy 4000 ft
Mostly Cloudy 5000 ft
Overcast 9500 ft
Dew Point 55 °F
Humidity 98%
Rainfall 0.17 in
Snow Depth Not available.
7:25 AM 7:50 PM
Waning Crescent, 0% visible
METAR K1A5 271820Z AUTO 03004KT 10SM BKN040 BKN050 OVC095 19/14 A3008 RMK AO2 T01910136

Get Severe Weather Alerts

Thanks for signing up!

Be on the lookout for a verification email in your inbox.

You'll start receiving the daily forecast at 8 AM.

×

10-Day Weather Forecast

Almanac

Astronomy

Mar. 27, 2017 Rise Set
Actual Time
Civil Twilight
Nautical Twilight
Astronomical Twilight
Moon
Length of Visible Light
Length of Day
Tomorrow will be .
, % of the Moon is Illuminated

Today's Extremes

State Highs State Lows

Community

WunderPhotos

Upload Photos

1,962,540 photos uploaded!

WunderBlog® & News

Nearby

Air Quality

  Air Quality AQ Index Pollutant
Not available.

Snow Depth

Station Depth Elevation

Earthquake Activity

City Distance Mag. Time & Date
Minimum magnitude displayed is 2.5.

Earthquake Activity

City Distance Mag. Time & Date
Minimum magnitude displayed is 2.5.

Coastal Water Temperatures

Place Temperature

Stations

Nearby Weather Stations

Station Location Temp. Windchill Dew Point Humidity Wind Precip. Elev Updated Type
                   

Watches & Warnings

There are currently no watches in effect.